»·PEaware :: N221XG KONT-KSMX

N221XG :: KONT-KSMX

FLIGHT INFORMATION

Flight Status: Arrived
Operator: Privately registered:
United States
More flights under this callsign
Pilot: Ryan L. (9775)
Aircraft: BEECH AIRCRAFT SUPER KING AIR 350
(B350)
More flights by this aircraft type
Origin: KONT Ontario Intl
United States
Destination: KSMX Santa Maria Pub/Capt Hancock
United States
More flights between these airports :: More routes between these airports
Route: POM1 POM ITSME V186 FIM V597 RZS
File this flight plan on PilotEdge
Remarks:
Altitude:
(Current/Filed)
12,000ft
Speed:
(Current/Filed)
290kts
Departed: 26-May-19 07:56 AM
Arrived: 26-May-19 08:40 AM
Distance/Time
Traveled:
150nm/0:43
Distance/Time
To Go:
Arrived

Flight Plot

Page will automatically refresh every two minutes.

Flight plan parsing failed; only flown route is shown


Map Options




Map Legend


Flown Route
Filed Route
Departure Airport
Arrival Airport
Navaid (VOR, NDB)
Fix

Horizontal Profiles

Position Reports

Time Latitude Longitude Heading Altitude Ground
Speed
26-May-19 07:41 34.050534 -117.603935 53 948ft 0kts
26-May-19 07:42 34.050534 -117.603935 53 948ft 0kts
26-May-19 07:43 34.050534 -117.603935 53 948ft 0kts
26-May-19 07:44 34.050534 -117.603935 53 948ft 0kts
26-May-19 07:44 34.050534 -117.603934 53 948ft 0kts
26-May-19 07:46 34.050534 -117.603934 53 948ft 0kts
26-May-19 07:47 34.050534 -117.603935 53 948ft 0kts
26-May-19 07:47 34.050535 -117.603932 53 948ft 0kts
26-May-19 07:49 34.051870 -117.603526 2 948ft 5kts
26-May-19 07:50 34.053760 -117.603574 36 948ft 7kts
26-May-19 07:50 34.053866 -117.600109 89 948ft 18kts
26-May-19 07:52 34.053859 -117.592267 90 948ft 19kts
26-May-19 07:52 34.053854 -117.586742 89 948ft 19kts
26-May-19 07:53 34.053912 -117.582934 87 948ft 5kts
26-May-19 07:55 34.054585 -117.582532 348 948ft 5kts
26-May-19 07:55 34.054966 -117.588492 269 948ft 85kts
26-May-19 07:56 34.053905 -117.631325 263 1894ft 146kts
26-May-19 07:57 34.050277 -117.681942 266 3377ft 155kts
26-May-19 07:58 34.051288 -117.737471 279 4498ft 171kts
26-May-19 07:59 34.078964 -117.787051 298 5528ft 183kts
26-May-19 08:00 34.077202 -117.845404 265 7038ft 186kts
26-May-19 08:01 34.077075 -117.918117 265 8600ft 189kts
26-May-19 08:02 34.076550 -117.979168 266 10027ft 208kts
26-May-19 08:03 34.091257 -118.055412 283 10004ft 254kts
26-May-19 08:04 34.116360 -118.137024 286 10000ft 265kts
26-May-19 08:05 34.141794 -118.220459 287 10270ft 260kts
26-May-19 08:06 34.165420 -118.298214 286 11613ft 237kts
26-May-19 08:07 34.188424 -118.374113 287 11984ft 252kts
26-May-19 08:08 34.212917 -118.455060 287 11979ft 263kts
26-May-19 08:09 34.239362 -118.538487 290 11978ft 268kts
26-May-19 08:10 34.269094 -118.620797 290 11974ft 264kts
26-May-19 08:11 34.296821 -118.700886 289 11982ft 259kts
26-May-19 08:12 34.323651 -118.781690 288 11982ft 257kts
26-May-19 08:13 34.350272 -118.861832 288 11987ft 256kts
26-May-19 08:14 34.368211 -118.944187 279 11998ft 253kts
26-May-19 08:15 34.382479 -119.027680 280 12005ft 252kts
26-May-19 08:16 34.396922 -119.110928 280 12007ft 252kts
26-May-19 08:17 34.411331 -119.194024 280 12007ft 252kts
26-May-19 08:18 34.425964 -119.277135 281 12006ft 251kts
26-May-19 08:19 34.441097 -119.359901 280 12005ft 250kts
26-May-19 08:20 34.455600 -119.442471 280 12004ft 250kts
26-May-19 08:21 34.468984 -119.519747 281 10517ft 224kts
26-May-19 08:22 34.480441 -119.592391 282 8976ft 216kts
26-May-19 08:23 34.492525 -119.665715 282 7492ft 227kts
26-May-19 08:24 34.504801 -119.741925 282 6039ft 231kts
26-May-19 08:25 34.524923 -119.809233 300 6014ft 211kts
26-May-19 08:26 34.555053 -119.872969 300 6010ft 221kts
26-May-19 08:27 34.586116 -119.938602 300 6009ft 225kts
26-May-19 08:28 34.618374 -120.004199 300 6009ft 226kts
26-May-19 08:29 34.649456 -120.070811 300 6006ft 226kts
26-May-19 08:30 34.679003 -120.134349 300 4982ft 209kts
26-May-19 08:31 34.705974 -120.192508 300 4600ft 184kts
26-May-19 08:32 34.732281 -120.242824 302 4603ft 171kts
26-May-19 08:33 34.761774 -120.286660 340 4557ft 172kts
26-May-19 08:34 34.792298 -120.324634 305 3634ft 159kts
26-May-19 08:35 34.821401 -120.360986 316 3003ft 139kts
26-May-19 08:36 34.850272 -120.392435 316 2022ft 135kts
26-May-19 08:37 34.876838 -120.421483 316 1598ft 133kts
26-May-19 08:38 34.900283 -120.454850 315 266ft 87kts
26-May-19 08:39 34.905644 -120.459405 44 266ft 0kts
26-May-19 08:40 34.906330 -120.458586 46 266ft 5kts
26-May-19 08:41 34.906755 -120.458601 313 266ft 0kts
26-May-19 08:42 34.906755 -120.458601 313 266ft 0kts
26-May-19 08:43 34.906755 -120.458601 313 266ft 0kts
26-May-19 08:44 34.906755 -120.458601 313 266ft 0kts
26-May-19 08:45 34.906755 -120.458601 313 266ft 0kts
26-May-19 08:46 34.906755 -120.458601 313 266ft 0kts
26-May-19 08:47 34.906755 -120.458601 313 266ft 0kts
26-May-19 08:48 34.906755 -120.458601 313 266ft 0kts
26-May-19 08:49 34.906755 -120.458601 313 266ft 0kts
26-May-19 08:50 34.906755 -120.458601 313 266ft 0kts
26-May-19 08:51 34.906755 -120.458601 313 266ft 0kts
26-May-19 08:52 34.906755 -120.458601 313 266ft 0kts
26-May-19 08:53 34.906755 -120.458601 313 266ft 0kts

Navigation Log

Ident Type
Flight plan parsing failed, navigation log unavailable